sensor_id;sensor_type;location;lat;lon;timestamp;P1;durP1;ratioP1;P2;durP2;ratioP2
7817;SDS011;3954;52.624;9.212;2023-01-01T00:02:08;9.80;;;3.63;;
7817;SDS011;3954;52.624;9.212;2023-01-01T00:04:34;13.30;;;3.83;;
7817;SDS011;3954;52.624;9.212;2023-01-01T00:07:00;7.70;;;3.20;;
7817;SDS011;3954;52.624;9.212;2023-01-01T00:09:27;8.90;;;3.27;;
7817;SDS011;3954;52.624;9.212;2023-01-01T00:12:12;9.33;;;3.63;;
7817;SDS011;3954;52.624;9.212;2023-01-01T00:14:38;6.57;;;3.50;;
7817;SDS011;3954;52.624;9.212;2023-01-01T00:17:06;11.20;;;4.43;;
7817;SDS011;3954;52.624;9.212;2023-01-01T00:19:32;10.10;;;4.07;;
7817;SDS011;3954;52.624;9.212;2023-01-01T00:21:58;8.97;;;3.87;;
7817;SDS011;3954;52.624;9.212;2023-01-01T00:24:24;9.03;;;3.77;;
7817;SDS011;3954;52.624;9.212;2023-01-01T00:26:51;8.97;;;3.57;;
7817;SDS011;3954;52.624;9.212;2023-01-01T00:29:17;10.97;;;3.80;;
7817;SDS011;3954;52.624;9.212;2023-01-01T00:31:43;8.70;;;4.43;;
7817;SDS011;3954;52.624;9.212;2023-01-01T00:34:10;11.30;;;4.20;;
7817;SDS011;3954;52.624;9.212;2023-01-01T00:36:36;8.27;;;4.37;;
7817;SDS011;3954;52.624;9.212;2023-01-01T00:39:02;7.43;;;4.50;;
7817;SDS011;3954;52.624;9.212;2023-01-01T00:41:29;8.33;;;3.80;;
7817;SDS011;3954;52.624;9.212;2023-01-01T00:43:56;12.67;;;4.20;;
7817;SDS011;3954;52.624;9.212;2023-01-01T00:46:22;10.30;;;4.57;;
7817;SDS011;3954;52.624;9.212;2023-01-01T00:48:48;9.23;;;4.77;;
7817;SDS011;3954;52.624;9.212;2023-01-01T00:51:14;9.07;;;4.30;;
7817;SDS011;3954;52.624;9.212;2023-01-01T00:53:40;8.17;;;3.70;;
7817;SDS011;3954;52.624;9.212;2023-01-01T00:56:06;11.43;;;4.10;;
7817;SDS011;3954;52.624;9.212;2023-01-01T00:58:32;10.33;;;4.43;;
7817;SDS011;3954;52.624;9.212;2023-01-01T01:00:59;10.40;;;4.17;;
7817;SDS011;3954;52.624;9.212;2023-01-01T01:03:25;7.50;;;3.83;;
7817;SDS011;3954;52.624;9.212;2023-01-01T01:05:55;7.20;;;3.77;;
7817;SDS011;3954;52.624;9.212;2023-01-01T01:08:21;7.10;;;3.33;;
7817;SDS011;3954;52.624;9.212;2023-01-01T01:10:47;7.60;;;3.60;;
7817;SDS011;3954;52.624;9.212;2023-01-01T01:13:13;10.87;;;4.00;;
7817;SDS011;3954;52.624;9.212;2023-01-01T01:15:39;7.47;;;3.40;;
7817;SDS011;3954;52.624;9.212;2023-01-01T01:18:07;9.30;;;3.80;;
7817;SDS011;3954;52.624;9.212;2023-01-01T01:20:33;7.70;;;3.63;;
7817;SDS011;3954;52.624;9.212;2023-01-01T01:22:59;8.50;;;3.20;;
7817;SDS011;3954;52.624;9.212;2023-01-01T01:25:25;10.50;;;3.60;;
7817;SDS011;3954;52.624;9.212;2023-01-01T01:27:51;7.70;;;3.47;;
7817;SDS011;3954;52.624;9.212;2023-01-01T01:30:17;7.40;;;3.17;;
7817;SDS011;3954;52.624;9.212;2023-01-01T01:32:43;10.23;;;3.87;;
7817;SDS011;3954;52.624;9.212;2023-01-01T01:35:10;8.80;;;3.93;;
7817;SDS011;3954;52.624;9.212;2023-01-01T01:37:36;9.60;;;3.97;;
7817;SDS011;3954;52.624;9.212;2023-01-01T01:40:03;8.27;;;4.20;;
7817;SDS011;3954;52.624;9.212;2023-01-01T01:42:29;9.53;;;4.47;;
7817;SDS011;3954;52.624;9.212;2023-01-01T01:44:56;11.27;;;4.23;;
7817;SDS011;3954;52.624;9.212;2023-01-01T01:47:25;8.23;;;3.93;;
7817;SDS011;3954;52.624;9.212;2023-01-01T01:49:52;7.53;;;3.90;;
7817;SDS011;3954;52.624;9.212;2023-01-01T01:52:20;9.03;;;3.90;;
7817;SDS011;3954;52.624;9.212;2023-01-01T01:54:46;16.33;;;5.63;;
7817;SDS011;3954;52.624;9.212;2023-01-01T01:57:12;8.90;;;4.30;;
7817;SDS011;3954;52.624;9.212;2023-01-01T01:59:39;8.17;;;4.00;;
7817;SDS011;3954;52.624;9.212;2023-01-01T02:02:08;12.97;;;4.50;;
7817;SDS011;3954;52.624;9.212;2023-01-01T02:04:34;9.57;;;5.07;;
7817;SDS011;3954;52.624;9.212;2023-01-01T02:07:00;13.27;;;4.63;;
7817;SDS011;3954;52.624;9.212;2023-01-01T02:09:27;10.60;;;4.53;;
7817;SDS011;3954;52.624;9.212;2023-01-01T02:11:53;12.53;;;5.20;;
7817;SDS011;3954;52.624;9.212;2023-01-01T02:14:19;12.57;;;5.13;;
7817;SDS011;3954;52.624;9.212;2023-01-01T02:16:46;10.40;;;5.30;;
7817;SDS011;3954;52.624;9.212;2023-01-01T02:19:16;11.07;;;5.40;;
7817;SDS011;3954;52.624;9.212;2023-01-01T02:21:47;12.10;;;5.43;;
7817;SDS011;3954;52.624;9.212;2023-01-01T02:26:57;13.27;;;6.47;;
7817;SDS011;3954;52.624;9.212;2023-01-01T02:32:09;11.73;;;6.67;;
7817;SDS011;3954;52.624;9.212;2023-01-01T02:34:37;11.57;;;6.10;;
7817;SDS011;3954;52.624;9.212;2023-01-01T02:37:05;9.77;;;6.27;;
7817;SDS011;3954;52.624;9.212;2023-01-01T02:39:32;11.27;;;6.93;;
7817;SDS011;3954;52.624;9.212;2023-01-01T02:41:59;11.10;;;6.13;;
7817;SDS011;3954;52.624;9.212;2023-01-01T02:44:27;10.83;;;6.23;;
7817;SDS011;3954;52.624;9.212;2023-01-01T02:46:55;15.13;;;7.07;;
7817;SDS011;3954;52.624;9.212;2023-01-01T02:49:22;13.83;;;6.37;;
7817;SDS011;3954;52.624;9.212;2023-01-01T02:51:54;11.03;;;5.53;;
7817;SDS011;3954;52.624;9.212;2023-01-01T02:54:24;12.90;;;6.77;;
7817;SDS011;3954;52.624;9.212;2023-01-01T02:56:53;12.70;;;6.33;;
7817;SDS011;3954;52.624;9.212;2023-01-01T02:59:21;13.73;;;6.77;;
7817;SDS011;3954;52.624;9.212;2023-01-01T03:02:21;9.50;;;5.70;;
7817;SDS011;3954;52.624;9.212;2023-01-01T03:04:53;10.83;;;6.03;;
7817;SDS011;3954;52.624;9.212;2023-01-01T03:07:23;10.13;;;5.70;;
7817;SDS011;3954;52.624;9.212;2023-01-01T03:09:53;9.10;;;6.17;;
7817;SDS011;3954;52.624;9.212;2023-01-01T03:12:22;12.77;;;6.37;;
7817;SDS011;3954;52.624;9.212;2023-01-01T03:14:50;8.97;;;5.67;;
7817;SDS011;3954;52.624;9.212;2023-01-01T03:17:19;10.33;;;5.60;;
7817;SDS011;3954;52.624;9.212;2023-01-01T03:19:46;11.57;;;6.03;;
7817;SDS011;3954;52.624;9.212;2023-01-01T03:22:15;12.57;;;6.23;;
7817;SDS011;3954;52.624;9.212;2023-01-01T03:24:43;11.43;;;5.40;;
7817;SDS011;3954;52.624;9.212;2023-01-01T03:27:12;10.30;;;5.80;;
7817;SDS011;3954;52.624;9.212;2023-01-01T03:29:38;11.37;;;6.50;;
7817;SDS011;3954;52.624;9.212;2023-01-01T03:32:05;13.13;;;6.13;;
7817;SDS011;3954;52.624;9.212;2023-01-01T03:34:33;10.67;;;5.97;;
7817;SDS011;3954;52.624;9.212;2023-01-01T03:37:02;11.47;;;6.27;;
7817;SDS011;3954;52.624;9.212;2023-01-01T03:39:30;11.67;;;5.73;;
7817;SDS011;3954;52.624;9.212;2023-01-01T03:42:01;12.13;;;5.87;;
7817;SDS011;3954;52.624;9.212;2023-01-01T03:44:31;12.63;;;6.03;;
7817;SDS011;3954;52.624;9.212;2023-01-01T03:46:58;8.83;;;5.17;;
7817;SDS011;3954;52.624;9.212;2023-01-01T03:49:24;10.53;;;5.43;;
7817;SDS011;3954;52.624;9.212;2023-01-01T03:51:55;9.57;;;5.60;;
7817;SDS011;3954;52.624;9.212;2023-01-01T03:54:26;11.30;;;5.80;;
7817;SDS011;3954;52.624;9.212;2023-01-01T03:56:56;14.37;;;6.17;;
7817;SDS011;3954;52.624;9.212;2023-01-01T03:59:23;10.23;;;5.73;;
7817;SDS011;3954;52.624;9.212;2023-01-01T04:01:56;9.77;;;5.53;;
7817;SDS011;3954;52.624;9.212;2023-01-01T04:04:22;11.53;;;5.73;;
7817;SDS011;3954;52.624;9.212;2023-01-01T04:06:49;10.87;;;5.10;;
7817;SDS011;3954;52.624;9.212;2023-01-01T04:09:16;9.47;;;4.80;;
7817;SDS011;3954;52.624;9.212;2023-01-01T04:11:43;9.73;;;4.60;;
7817;SDS011;3954;52.624;9.212;2023-01-01T04:14:27;9.77;;;4.87;;
7817;SDS011;3954;52.624;9.212;2023-01-01T04:16:54;11.80;;;5.03;;
7817;SDS011;3954;52.624;9.212;2023-01-01T04:19:20;9.50;;;4.83;;
7817;SDS011;3954;52.624;9.212;2023-01-01T04:21:46;9.43;;;4.77;;
7817;SDS011;3954;52.624;9.212;2023-01-01T04:24:12;11.63;;;4.53;;
7817;SDS011;3954;52.624;9.212;2023-01-01T04:26:39;6.90;;;4.30;;
7817;SDS011;3954;52.624;9.212;2023-01-01T04:29:05;14.17;;;4.60;;
7817;SDS011;3954;52.624;9.212;2023-01-01T04:31:32;8.00;;;4.37;;
7817;SDS011;3954;52.624;9.212;2023-01-01T04:33:59;6.40;;;4.60;;
7817;SDS011;3954;52.624;9.212;2023-01-01T04:36:25;9.80;;;4.00;;
7817;SDS011;3954;52.624;9.212;2023-01-01T04:38:51;6.17;;;3.87;;
7817;SDS011;3954;52.624;9.212;2023-01-01T04:41:17;8.63;;;3.60;;
7817;SDS011;3954;52.624;9.212;2023-01-01T04:43:45;5.63;;;3.47;;
7817;SDS011;3954;52.624;9.212;2023-01-01T04:46:14;9.33;;;3.40;;
7817;SDS011;3954;52.624;9.212;2023-01-01T04:48:42;6.27;;;3.37;;
7817;SDS011;3954;52.624;9.212;2023-01-01T04:51:08;5.17;;;3.30;;
7817;SDS011;3954;52.624;9.212;2023-01-01T04:53:34;7.17;;;3.07;;
7817;SDS011;3954;52.624;9.212;2023-01-01T04:56:02;5.23;;;3.10;;
7817;SDS011;3954;52.624;9.212;2023-01-01T04:58:28;6.43;;;3.23;;
7817;SDS011;3954;52.624;9.212;2023-01-01T05:00:54;9.00;;;3.33;;
7817;SDS011;3954;52.624;9.212;2023-01-01T05:03:20;7.97;;;3.80;;
7817;SDS011;3954;52.624;9.212;2023-01-01T05:05:48;5.37;;;3.27;;
7817;SDS011;3954;52.624;9.212;2023-01-01T05:08:23;4.97;;;3.00;;
7817;SDS011;3954;52.624;9.212;2023-01-01T05:10:49;6.87;;;2.90;;
7817;SDS011;3954;52.624;9.212;2023-01-01T05:13:15;4.97;;;2.90;;
7817;SDS011;3954;52.624;9.212;2023-01-01T05:15:41;6.33;;;2.50;;
7817;SDS011;3954;52.624;9.212;2023-01-01T05:18:07;5.27;;;2.50;;
7817;SDS011;3954;52.624;9.212;2023-01-01T05:20:33;10.73;;;3.20;;
7817;SDS011;3954;52.624;9.212;2023-01-01T05:23:01;6.93;;;2.70;;
7817;SDS011;3954;52.624;9.212;2023-01-01T05:25:27;4.73;;;2.80;;
7817;SDS011;3954;52.624;9.212;2023-01-01T05:27:53;5.90;;;2.50;;
7817;SDS011;3954;52.624;9.212;2023-01-01T05:30:19;5.60;;;2.50;;
7817;SDS011;3954;52.624;9.212;2023-01-01T05:32:45;6.27;;;2.50;;
7817;SDS011;3954;52.624;9.212;2023-01-01T05:35:10;5.57;;;2.43;;
7817;SDS011;3954;52.624;9.212;2023-01-01T05:37:36;4.80;;;2.50;;
7817;SDS011;3954;52.624;9.212;2023-01-01T05:40:04;4.20;;;2.60;;
7817;SDS011;3954;52.624;9.212;2023-01-01T05:42:31;5.50;;;2.60;;
7817;SDS011;3954;52.624;9.212;2023-01-01T05:44:57;3.20;;;2.27;;
7817;SDS011;3954;52.624;9.212;2023-01-01T05:47:23;5.27;;;2.60;;
7817;SDS011;3954;52.624;9.212;2023-01-01T05:49:49;6.50;;;2.30;;
7817;SDS011;3954;52.624;9.212;2023-01-01T05:52:15;3.70;;;2.20;;
7817;SDS011;3954;52.624;9.212;2023-01-01T05:54:41;6.90;;;1.93;;
7817;SDS011;3954;52.624;9.212;2023-01-01T05:57:09;6.00;;;2.03;;
7817;SDS011;3954;52.624;9.212;2023-01-01T05:59:35;3.07;;;2.00;;
7817;SDS011;3954;52.624;9.212;2023-01-01T06:02:01;5.03;;;2.13;;
7817;SDS011;3954;52.624;9.212;2023-01-01T06:04:27;4.23;;;2.23;;
7817;SDS011;3954;52.624;9.212;2023-01-01T06:06:53;5.13;;;2.10;;
7817;SDS011;3954;52.624;9.212;2023-01-01T06:09:19;4.47;;;2.13;;
7817;SDS011;3954;52.624;9.212;2023-01-01T06:11:45;5.30;;;2.10;;
7817;SDS011;3954;52.624;9.212;2023-01-01T06:14:12;5.93;;;2.20;;
7817;SDS011;3954;52.624;9.212;2023-01-01T06:16:38;6.77;;;2.00;;
7817;SDS011;3954;52.624;9.212;2023-01-01T06:19:04;2.67;;;1.80;;
7817;SDS011;3954;52.624;9.212;2023-01-01T06:21:30;5.53;;;2.10;;
7817;SDS011;3954;52.624;9.212;2023-01-01T06:23:57;6.43;;;1.90;;
7817;SDS011;3954;52.624;9.212;2023-01-01T06:26:24;2.37;;;1.70;;
7817;SDS011;3954;52.624;9.212;2023-01-01T06:28:51;4.00;;;1.90;;
7817;SDS011;3954;52.624;9.212;2023-01-01T06:31:18;4.07;;;1.93;;
7817;SDS011;3954;52.624;9.212;2023-01-01T06:33:45;4.20;;;2.03;;
7817;SDS011;3954;52.624;9.212;2023-01-01T06:36:12;2.43;;;1.97;;
7817;SDS011;3954;52.624;9.212;2023-01-01T06:38:40;3.60;;;2.00;;
7817;SDS011;3954;52.624;9.212;2023-01-01T06:41:07;4.70;;;2.00;;
7817;SDS011;3954;52.624;9.212;2023-01-01T06:43:33;4.30;;;1.90;;
7817;SDS011;3954;52.624;9.212;2023-01-01T06:46:00;4.40;;;1.63;;
7817;SDS011;3954;52.624;9.212;2023-01-01T06:48:28;3.83;;;1.60;;
7817;SDS011;3954;52.624;9.212;2023-01-01T06:50:54;5.90;;;1.93;;
7817;SDS011;3954;52.624;9.212;2023-01-01T06:53:22;2.60;;;1.70;;
7817;SDS011;3954;52.624;9.212;2023-01-01T06:55:48;5.50;;;1.93;;
7817;SDS011;3954;52.624;9.212;2023-01-01T06:58:14;3.90;;;1.80;;
7817;SDS011;3954;52.624;9.212;2023-01-01T07:00:40;4.90;;;2.00;;
7817;SDS011;3954;52.624;9.212;2023-01-01T07:03:08;5.07;;;1.80;;
7817;SDS011;3954;52.624;9.212;2023-01-01T07:05:35;2.70;;;1.50;;
7817;SDS011;3954;52.624;9.212;2023-01-01T07:08:01;6.43;;;1.70;;
7817;SDS011;3954;52.624;9.212;2023-01-01T07:10:27;6.47;;;1.93;;
7817;SDS011;3954;52.624;9.212;2023-01-01T07:12:53;2.83;;;1.70;;
7817;SDS011;3954;52.624;9.212;2023-01-01T07:15:19;3.27;;;1.73;;
7817;SDS011;3954;52.624;9.212;2023-01-01T07:17:45;7.03;;;1.87;;
7817;SDS011;3954;52.624;9.212;2023-01-01T07:20:11;3.47;;;1.80;;
7817;SDS011;3954;52.624;9.212;2023-01-01T07:22:39;11.77;;;1.70;;
7817;SDS011;3954;52.624;9.212;2023-01-01T07:25:05;2.53;;;1.50;;
7817;SDS011;3954;52.624;9.212;2023-01-01T07:27:32;3.67;;;2.17;;
7817;SDS011;3954;52.624;9.212;2023-01-01T07:29:58;4.43;;;1.83;;
7817;SDS011;3954;52.624;9.212;2023-01-01T07:32:24;4.07;;;1.63;;
7817;SDS011;3954;52.624;9.212;2023-01-01T07:34:49;3.23;;;1.80;;
7817;SDS011;3954;52.624;9.212;2023-01-01T07:37:15;3.93;;;1.70;;
7817;SDS011;3954;52.624;9.212;2023-01-01T07:39:43;2.17;;;1.57;;
7817;SDS011;3954;52.624;9.212;2023-01-01T07:42:09;4.77;;;1.70;;
7817;SDS011;3954;52.624;9.212;2023-01-01T07:44:35;3.33;;;2.00;;
7817;SDS011;3954;52.624;9.212;2023-01-01T07:47:01;2.40;;;1.60;;
7817;SDS011;3954;52.624;9.212;2023-01-01T07:49:27;4.50;;;1.80;;
7817;SDS011;3954;52.624;9.212;2023-01-01T07:51:53;6.70;;;2.07;;
7817;SDS011;3954;52.624;9.212;2023-01-01T07:54:19;4.60;;;1.70;;
7817;SDS011;3954;52.624;9.212;2023-01-01T07:56:46;6.03;;;1.83;;
7817;SDS011;3954;52.624;9.212;2023-01-01T07:59:12;4.13;;;1.70;;
7817;SDS011;3954;52.624;9.212;2023-01-01T08:01:38;5.63;;;1.93;;
7817;SDS011;3954;52.624;9.212;2023-01-01T08:04:04;4.17;;;2.00;;
7817;SDS011;3954;52.624;9.212;2023-01-01T08:06:30;3.17;;;1.80;;
7817;SDS011;3954;52.624;9.212;2023-01-01T08:08:56;6.20;;;1.90;;
7817;SDS011;3954;52.624;9.212;2023-01-01T08:11:22;4.77;;;1.80;;
7817;SDS011;3954;52.624;9.212;2023-01-01T08:13:49;4.63;;;2.20;;
7817;SDS011;3954;52.624;9.212;2023-01-01T08:16:15;4.57;;;1.80;;
7817;SDS011;3954;52.624;9.212;2023-01-01T08:18:41;3.83;;;2.17;;
7817;SDS011;3954;52.624;9.212;2023-01-01T08:21:07;4.77;;;2.10;;
7817;SDS011;3954;52.624;9.212;2023-01-01T08:23:33;4.57;;;2.00;;
7817;SDS011;3954;52.624;9.212;2023-01-01T08:26:00;3.13;;;1.90;;
7817;SDS011;3954;52.624;9.212;2023-01-01T08:28:26;4.00;;;2.10;;
7817;SDS011;3954;52.624;9.212;2023-01-01T08:30:53;5.97;;;3.10;;
7817;SDS011;3954;52.624;9.212;2023-01-01T08:33:19;8.33;;;2.70;;
7817;SDS011;3954;52.624;9.212;2023-01-01T08:35:53;5.83;;;2.17;;
7817;SDS011;3954;52.624;9.212;2023-01-01T08:38:19;7.50;;;3.20;;
7817;SDS011;3954;52.624;9.212;2023-01-01T08:40:45;4.77;;;2.67;;
7817;SDS011;3954;52.624;9.212;2023-01-01T08:43:11;4.23;;;2.00;;
7817;SDS011;3954;52.624;9.212;2023-01-01T08:45:37;6.30;;;2.10;;
7817;SDS011;3954;52.624;9.212;2023-01-01T08:48:05;3.83;;;1.87;;
7817;SDS011;3954;52.624;9.212;2023-01-01T08:50:31;6.00;;;2.00;;
7817;SDS011;3954;52.624;9.212;2023-01-01T08:52:57;4.07;;;1.77;;
7817;SDS011;3954;52.624;9.212;2023-01-01T08:55:23;5.60;;;1.90;;
7817;SDS011;3954;52.624;9.212;2023-01-01T08:57:49;4.10;;;1.67;;
7817;SDS011;3954;52.624;9.212;2023-01-01T09:00:15;4.90;;;2.30;;
7817;SDS011;3954;52.624;9.212;2023-01-01T09:02:42;6.13;;;2.07;;
7817;SDS011;3954;52.624;9.212;2023-01-01T09:05:09;6.47;;;2.43;;
7817;SDS011;3954;52.624;9.212;2023-01-01T09:07:35;3.70;;;2.00;;
7817;SDS011;3954;52.624;9.212;2023-01-01T09:10:01;4.13;;;2.00;;
7817;SDS011;3954;52.624;9.212;2023-01-01T09:12:27;4.23;;;2.10;;
7817;SDS011;3954;52.624;9.212;2023-01-01T09:14:54;11.93;;;1.90;;
7817;SDS011;3954;52.624;9.212;2023-01-01T09:17:20;3.53;;;2.00;;
7817;SDS011;3954;52.624;9.212;2023-01-01T09:19:46;2.53;;;1.30;;
7817;SDS011;3954;52.624;9.212;2023-01-01T09:22:13;2.83;;;1.30;;
7817;SDS011;3954;52.624;9.212;2023-01-01T09:24:39;4.47;;;1.57;;
7817;SDS011;3954;52.624;9.212;2023-01-01T09:27:07;3.43;;;1.50;;
7817;SDS011;3954;52.624;9.212;2023-01-01T09:29:33;3.70;;;1.50;;
7817;SDS011;3954;52.624;9.212;2023-01-01T09:31:59;2.87;;;1.70;;
7817;SDS011;3954;52.624;9.212;2023-01-01T09:34:25;4.63;;;1.63;;
7817;SDS011;3954;52.624;9.212;2023-01-01T09:36:51;3.40;;;1.80;;
7817;SDS011;3954;52.624;9.212;2023-01-01T09:39:18;1.80;;;1.57;;
7817;SDS011;3954;52.624;9.212;2023-01-01T09:41:56;2.80;;;1.80;;
7817;SDS011;3954;52.624;9.212;2023-01-01T09:44:31;3.60;;;1.77;;
7817;SDS011;3954;52.624;9.212;2023-01-01T09:47:01;3.80;;;2.13;;
7817;SDS011;3954;52.624;9.212;2023-01-01T09:49:30;4.67;;;2.33;;
7817;SDS011;3954;52.624;9.212;2023-01-01T09:51:57;4.77;;;2.47;;
7817;SDS011;3954;52.624;9.212;2023-01-01T09:54:30;6.00;;;2.37;;
7817;SDS011;3954;52.624;9.212;2023-01-01T09:57:00;4.93;;;2.23;;
7817;SDS011;3954;52.624;9.212;2023-01-01T09:59:26;4.47;;;2.10;;
7817;SDS011;3954;52.624;9.212;2023-01-01T10:01:53;5.57;;;1.97;;
7817;SDS011;3954;52.624;9.212;2023-01-01T10:04:31;4.90;;;1.77;;
7817;SDS011;3954;52.624;9.212;2023-01-01T10:07:01;2.70;;;1.70;;
7817;SDS011;3954;52.624;9.212;2023-01-01T10:09:32;3.97;;;1.40;;
7817;SDS011;3954;52.624;9.212;2023-01-01T10:12:02;3.73;;;1.40;;
7817;SDS011;3954;52.624;9.212;2023-01-01T10:14:31;8.63;;;1.47;;
7817;SDS011;3954;52.624;9.212;2023-01-01T10:16:59;5.33;;;1.50;;
7817;SDS011;3954;52.624;9.212;2023-01-01T10:19:27;5.37;;;2.00;;
7817;SDS011;3954;52.624;9.212;2023-01-01T10:21:56;3.47;;;1.60;;
7817;SDS011;3954;52.624;9.212;2023-01-01T10:24:40;3.13;;;1.40;;
7817;SDS011;3954;52.624;9.212;2023-01-01T10:27:08;1.70;;;1.30;;
7817;SDS011;3954;52.624;9.212;2023-01-01T10:29:37;1.83;;;1.33;;
7817;SDS011;3954;52.624;9.212;2023-01-01T10:32:13;2.07;;;1.43;;
7817;SDS011;3954;52.624;9.212;2023-01-01T10:34:41;1.77;;;1.20;;
7817;SDS011;3954;52.624;9.212;2023-01-01T10:37:07;3.00;;;1.60;;
7817;SDS011;3954;52.624;9.212;2023-01-01T10:39:33;2.67;;;1.50;;
7817;SDS011;3954;52.624;9.212;2023-01-01T10:42:01;2.97;;;1.30;;
7817;SDS011;3954;52.624;9.212;2023-01-01T10:44:28;4.90;;;1.60;;
7817;SDS011;3954;52.624;9.212;2023-01-01T10:46:55;2.60;;;1.30;;
7817;SDS011;3954;52.624;9.212;2023-01-01T10:49:21;5.20;;;1.40;;
7817;SDS011;3954;52.624;9.212;2023-01-01T10:51:48;2.17;;;1.50;;
7817;SDS011;3954;52.624;9.212;2023-01-01T10:54:22;2.90;;;1.80;;
7817;SDS011;3954;52.624;9.212;2023-01-01T10:56:49;3.13;;;1.50;;
7817;SDS011;3954;52.624;9.212;2023-01-01T11:02:13;1.90;;;1.50;;
7817;SDS011;3954;52.624;9.212;2023-01-01T11:04:39;1.93;;;1.50;;
7817;SDS011;3954;52.624;9.212;2023-01-01T11:07:05;3.70;;;1.80;;
7817;SDS011;3954;52.624;9.212;2023-01-01T11:09:31;4.97;;;1.60;;
7817;SDS011;3954;52.624;9.212;2023-01-01T11:12:04;2.73;;;1.40;;
7817;SDS011;3954;52.624;9.212;2023-01-01T11:14:37;2.37;;;1.40;;
7817;SDS011;3954;52.624;9.212;2023-01-01T11:17:03;4.07;;;1.87;;
7817;SDS011;3954;52.624;9.212;2023-01-01T11:19:32;3.77;;;1.50;;
7817;SDS011;3954;52.624;9.212;2023-01-01T11:21:59;5.93;;;1.80;;
7817;SDS011;3954;52.624;9.212;2023-01-01T11:24:26;3.87;;;1.63;;
7817;SDS011;3954;52.624;9.212;2023-01-01T11:26:53;5.43;;;1.90;;
7817;SDS011;3954;52.624;9.212;2023-01-01T11:29:29;3.17;;;1.50;;
7817;SDS011;3954;52.624;9.212;2023-01-01T11:31:55;3.13;;;1.70;;
7817;SDS011;3954;52.624;9.212;2023-01-01T11:34:26;3.20;;;1.70;;
7817;SDS011;3954;52.624;9.212;2023-01-01T11:37:05;3.90;;;1.73;;
7817;SDS011;3954;52.624;9.212;2023-01-01T11:39:32;4.97;;;2.30;;
7817;SDS011;3954;52.624;9.212;2023-01-01T11:42:01;3.50;;;2.03;;
7817;SDS011;3954;52.624;9.212;2023-01-01T11:44:33;5.77;;;2.20;;
7817;SDS011;3954;52.624;9.212;2023-01-01T11:47:00;5.23;;;2.40;;
7817;SDS011;3954;52.624;9.212;2023-01-01T11:49:27;5.47;;;2.30;;
7817;SDS011;3954;52.624;9.212;2023-01-01T11:51:54;3.83;;;2.30;;
7817;SDS011;3954;52.624;9.212;2023-01-01T11:54:23;4.50;;;2.63;;
7817;SDS011;3954;52.624;9.212;2023-01-01T11:56:51;4.20;;;2.80;;
7817;SDS011;3954;52.624;9.212;2023-01-01T11:59:19;9.03;;;4.37;;
7817;SDS011;3954;52.624;9.212;2023-01-01T12:01:47;10.87;;;5.47;;
7817;SDS011;3954;52.624;9.212;2023-01-01T12:04:16;7.93;;;2.47;;
7817;SDS011;3954;52.624;9.212;2023-01-01T12:06:44;8.83;;;4.27;;
7817;SDS011;3954;52.624;9.212;2023-01-01T12:09:14;8.73;;;3.50;;
7817;SDS011;3954;52.624;9.212;2023-01-01T12:11:43;5.43;;;2.40;;
7817;SDS011;3954;52.624;9.212;2023-01-01T12:14:12;8.23;;;4.97;;
7817;SDS011;3954;52.624;9.212;2023-01-01T12:16:44;4.33;;;1.93;;
7817;SDS011;3954;52.624;9.212;2023-01-01T12:19:14;6.33;;;3.20;;
7817;SDS011;3954;52.624;9.212;2023-01-01T12:21:43;7.97;;;4.40;;
7817;SDS011;3954;52.624;9.212;2023-01-01T12:24:11;4.83;;;2.20;;
7817;SDS011;3954;52.624;9.212;2023-01-01T12:26:41;6.63;;;2.27;;
7817;SDS011;3954;52.624;9.212;2023-01-01T12:29:24;5.30;;;2.17;;
7817;SDS011;3954;52.624;9.212;2023-01-01T12:31:57;6.60;;;2.57;;
7817;SDS011;3954;52.624;9.212;2023-01-01T12:34:28;6.30;;;2.37;;
7817;SDS011;3954;52.624;9.212;2023-01-01T12:36:57;4.17;;;2.03;;
7817;SDS011;3954;52.624;9.212;2023-01-01T12:39:40;6.50;;;2.40;;
7817;SDS011;3954;52.624;9.212;2023-01-01T12:42:16;4.57;;;1.93;;
7817;SDS011;3954;52.624;9.212;2023-01-01T12:44:50;5.93;;;2.17;;
7817;SDS011;3954;52.624;9.212;2023-01-01T12:47:23;3.17;;;2.20;;
7817;SDS011;3954;52.624;9.212;2023-01-01T12:49:58;4.07;;;2.10;;
7817;SDS011;3954;52.624;9.212;2023-01-01T12:52:33;4.03;;;1.90;;
7817;SDS011;3954;52.624;9.212;2023-01-01T12:55:06;4.10;;;1.77;;
7817;SDS011;3954;52.624;9.212;2023-01-01T12:57:38;5.80;;;2.10;;
7817;SDS011;3954;52.624;9.212;2023-01-01T13:00:12;5.93;;;2.00;;
7817;SDS011;3954;52.624;9.212;2023-01-01T13:02:40;3.87;;;1.90;;
7817;SDS011;3954;52.624;9.212;2023-01-01T13:05:12;3.50;;;1.90;;
7817;SDS011;3954;52.624;9.212;2023-01-01T13:07:41;5.00;;;2.23;;
7817;SDS011;3954;52.624;9.212;2023-01-01T13:10:09;8.03;;;2.40;;
7817;SDS011;3954;52.624;9.212;2023-01-01T13:12:41;10.67;;;6.83;;
7817;SDS011;3954;52.624;9.212;2023-01-01T13:18:16;5.90;;;2.10;;
7817;SDS011;3954;52.624;9.212;2023-01-01T13:20:43;7.20;;;2.57;;
7817;SDS011;3954;52.624;9.212;2023-01-01T13:28:32;3.73;;;2.17;;
7817;SDS011;3954;52.624;9.212;2023-01-01T13:30:57;4.90;;;1.90;;
7817;SDS011;3954;52.624;9.212;2023-01-01T13:33:25;5.87;;;2.07;;
7817;SDS011;3954;52.624;9.212;2023-01-01T13:38:43;6.10;;;2.23;;
7817;SDS011;3954;52.624;9.212;2023-01-01T13:41:16;5.30;;;1.97;;
7817;SDS011;3954;52.624;9.212;2023-01-01T13:43:53;4.07;;;2.10;;
7817;SDS011;3954;52.624;9.212;2023-01-01T13:46:37;5.07;;;1.60;;
7817;SDS011;3954;52.624;9.212;2023-01-01T13:49:11;5.77;;;2.23;;
7817;SDS011;3954;52.624;9.212;2023-01-01T13:57:11;5.70;;;2.23;;
7817;SDS011;3954;52.624;9.212;2023-01-01T13:59:47;5.53;;;2.10;;
7817;SDS011;3954;52.624;9.212;2023-01-01T14:02:21;3.60;;;1.90;;
7817;SDS011;3954;52.624;9.212;2023-01-01T14:04:49;5.67;;;1.93;;
7817;SDS011;3954;52.624;9.212;2023-01-01T14:07:27;6.30;;;2.17;;
7817;SDS011;3954;52.624;9.212;2023-01-01T14:10:06;4.80;;;2.17;;
7817;SDS011;3954;52.624;9.212;2023-01-01T14:12:36;4.67;;;2.10;;
7817;SDS011;3954;52.624;9.212;2023-01-01T14:15:12;5.63;;;2.43;;
7817;SDS011;3954;52.624;9.212;2023-01-01T14:17:39;4.97;;;2.20;;
7817;SDS011;3954;52.624;9.212;2023-01-01T14:20:07;7.77;;;2.60;;
7817;SDS011;3954;52.624;9.212;2023-01-01T14:22:33;6.93;;;2.33;;
7817;SDS011;3954;52.624;9.212;2023-01-01T14:25:00;4.23;;;2.60;;
7817;SDS011;3954;52.624;9.212;2023-01-01T14:27:26;6.00;;;2.23;;
7817;SDS011;3954;52.624;9.212;2023-01-01T14:29:53;5.57;;;2.60;;
7817;SDS011;3954;52.624;9.212;2023-01-01T14:32:20;7.57;;;2.60;;
7817;SDS011;3954;52.624;9.212;2023-01-01T14:34:56;4.87;;;2.83;;
7817;SDS011;3954;52.624;9.212;2023-01-01T14:37:24;6.60;;;2.70;;
7817;SDS011;3954;52.624;9.212;2023-01-01T14:40:03;4.60;;;2.50;;
7817;SDS011;3954;52.624;9.212;2023-01-01T14:42:30;6.93;;;3.50;;
7817;SDS011;3954;52.624;9.212;2023-01-01T14:44:59;6.27;;;3.80;;
7817;SDS011;3954;52.624;9.212;2023-01-01T14:47:25;6.37;;;3.73;;
7817;SDS011;3954;52.624;9.212;2023-01-01T14:49:52;5.43;;;2.90;;
7817;SDS011;3954;52.624;9.212;2023-01-01T14:52:20;6.33;;;3.67;;
7817;SDS011;3954;52.624;9.212;2023-01-01T14:54:48;5.03;;;2.97;;
7817;SDS011;3954;52.624;9.212;2023-01-01T14:57:15;5.40;;;3.37;;
7817;SDS011;3954;52.624;9.212;2023-01-01T14:59:44;6.30;;;4.00;;
7817;SDS011;3954;52.624;9.212;2023-01-01T15:02:11;4.47;;;3.50;;
7817;SDS011;3954;52.624;9.212;2023-01-01T15:04:38;6.07;;;3.50;;
7817;SDS011;3954;52.624;9.212;2023-01-01T15:07:17;5.67;;;3.30;;
7817;SDS011;3954;52.624;9.212;2023-01-01T15:09:43;3.97;;;2.97;;
7817;SDS011;3954;52.624;9.212;2023-01-01T15:12:11;5.10;;;2.90;;
7817;SDS011;3954;52.624;9.212;2023-01-01T15:14:38;3.87;;;2.93;;
7817;SDS011;3954;52.624;9.212;2023-01-01T15:17:05;8.37;;;3.23;;
7817;SDS011;3954;52.624;9.212;2023-01-01T15:19:31;5.87;;;3.10;;
7817;SDS011;3954;52.624;9.212;2023-01-01T15:21:59;6.93;;;3.00;;
7817;SDS011;3954;52.624;9.212;2023-01-01T15:24:26;4.53;;;2.83;;
7817;SDS011;3954;52.624;9.212;2023-01-01T15:26:54;7.00;;;3.70;;
7817;SDS011;3954;52.624;9.212;2023-01-01T15:29:27;8.13;;;4.00;;
7817;SDS011;3954;52.624;9.212;2023-01-01T15:31:54;5.30;;;3.30;;
7817;SDS011;3954;52.624;9.212;2023-01-01T15:34:22;5.93;;;3.60;;
7817;SDS011;3954;52.624;9.212;2023-01-01T15:36:51;5.63;;;3.73;;
7817;SDS011;3954;52.624;9.212;2023-01-01T15:39:18;6.63;;;3.70;;
7817;SDS011;3954;52.624;9.212;2023-01-01T15:41:45;5.27;;;3.90;;
7817;SDS011;3954;52.624;9.212;2023-01-01T15:44:18;6.87;;;3.73;;